Latest Weather Observations for Mareeba

IDQ60801

Issued at 2:32 pm EST Thursday 30 March 2017 (issued every 30 minutes, with the page automatically refreshed every 10 minutes)

About weather observations | Map of weather stations | Latest weather observations for QLD | Other Formats
Station Details ID: 031210 Name: MAREEBA AIRPORT Lat: -17.07 Lon: 145.43 Height: 471.93 m
Data from the previous 72 hours. | See also: Recent months at Mareeba
Date/Time
EST
Temp
°C
App
Temp
°C
Dew
Point
°C
Rel
Hum
%
Delta-T
°C
Wind Press
QNH
hPa
Press
MSL
hPa
Rain since
9am
mm
Dir  Spd
km/h
Gust
km/h
Spd
kts
Gust
kts
30/02:30pm 34.4 35.6 21.4 46 9.0 WNW 17 28 9 15 1009.8 - 0.0
30/02:00pm 33.3 34.3 21.1 48 8.4 WNW 17 24 9 13 1010.0 - 0.0
30/01:30pm 33.3 35.1 21.8 51 7.9 WNW 15 24 8 13 1010.3 - 0.0
30/01:00pm 32.7 34.5 21.9 53 7.5 WNW 15 22 8 12 1011.2 - 0.0
30/12:30pm 32.3 33.9 22.1 55 7.1 WNW 17 26 9 14 1011.8 - 0.0
30/12:00pm 31.8 34.5 22.8 59 6.3 W 13 24 7 13 1012.4 1009.4 0.0
30/11:30am 30.9 32.5 22.2 59 6.0 W 17 22 9 12 1012.9 - 0.0
30/11:00am 30.9 34.5 23.8 66 5.0 NW 11 20 6 11 1013.2 - 0.0
30/10:30am 29.6 32.7 22.1 64 5.2 W 9 20 5 11 1013.5 - 0.0
30/10:00am 29.3 32.1 22.3 66 4.8 WNW 11 20 6 11 1013.7 - 0.0
30/09:30am 28.6 31.1 23.1 72 3.8 W 15 19 8 10 1013.9 - 0.0
30/09:00am 28.1 31.1 22.6 72 3.8 WNW 11 17 6 9 1013.9 1010.9 0.0
30/08:30am 27.7 30.8 23.5 78 2.9 W 13 17 7 9 1013.9 - 0.0
30/08:00am 26.7 30.0 22.5 78 2.9 WNW 9 11 5 6 1013.6 - 0.0
30/07:30am 26.2 31.3 22.7 81 2.4 CALM 0 0 0 0 1013.3 - 0.0
30/07:00am 24.2 29.3 22.6 91 1.1 CALM 0 0 0 0 1013.1 - 0.0
30/06:30am 23.4 26.4 22.0 92 0.9 SW 9 9 5 5 1012.4 - 0.0
30/06:00am 23.7 28.4 22.0 90 1.2 CALM 0 0 0 0 1012.3 1009.3 0.0
30/05:30am 24.5 29.6 22.6 89 1.3 CALM 0 0 0 0 1011.9 - 0.0
30/05:00am 24.0 28.9 22.3 90 1.2 CALM 0 0 0 0 1011.6 - 0.0
30/04:30am 24.4 27.9 22.1 87 1.6 ESE 7 7 4 4 1011.2 - 0.0
30/04:00am 24.2 29.0 22.1 88 1.4 CALM 0 0 0 0 1011.0 - 0.0
30/03:30am 23.7 28.5 22.1 91 1.1 CALM 0 0 0 0 1010.9 - 0.0
30/03:00am 23.9 28.5 21.8 88 1.4 CALM 0 0 0 0 1010.7 1007.7 0.0
30/02:30am 24.1 28.8 22.0 88 1.4 CALM 0 0 0 0 1011.0 - 0.0
30/02:00am 24.6 29.4 22.1 86 1.7 CALM 0 0 0 0 1011.0 - 0.0
30/01:30am 24.1 28.8 22.0 88 1.4 CALM 0 0 0 0 1011.1 - 0.0
30/01:00am 24.1 28.8 22.0 88 1.4 CALM 0 0 0 0 1011.1 - 0.0
30/12:30am 23.8 27.9 22.2 91 1.1 S 4 9 2 5 1011.4 - 0.0
30/12:00am 23.6 28.2 21.7 89 1.3 CALM 0 0 0 0 1011.5 1008.5 0.0
 
Date/Time
EST
Temp
°C
App
Temp
°C
Dew
Point
°C
Rel
Hum
%
Delta-T
°C
Wind Press
QNH
hPa
Press
MSL
hPa
Rain since
9am
mm
Dir  Spd
km/h
Gust
km/h
Spd
kts
Gust
kts
29/11:30pm 24.1 28.7 21.8 87 1.6 CALM 0 0 0 0 1011.6 - 0.0
29/11:00pm 24.4 29.0 21.7 85 1.8 CALM 0 0 0 0 1011.4 - 0.0
29/10:30pm 24.4 28.6 21.7 85 1.8 SE 2 6 1 3 1011.4 - 0.0
29/10:00pm 24.7 29.4 22.0 85 1.8 CALM 0 0 0 0 1011.3 - 0.0
29/09:30pm 25.3 30.0 22.0 82 2.2 CALM 0 0 0 0 1011.2 - 0.0
29/09:00pm 25.3 28.8 21.8 81 2.4 S 6 7 3 4 1010.9 1007.9 0.0
29/08:30pm 26.0 30.4 21.4 76 3.1 CALM 0 0 0 0 1010.4 - 0.0
29/08:00pm 26.6 30.9 21.1 72 3.7 CALM 0 0 0 0 1009.8 - 0.0
29/07:30pm 27.2 31.3 20.8 68 4.3 CALM 0 6 0 3 1009.3 - 0.0
29/07:00pm 28.0 30.0 20.8 65 4.8 WNW 11 15 6 8 1008.9 - 0.0
29/06:30pm 28.1 30.3 21.1 65 4.7 NW 11 15 6 8 1008.4 - 0.0
29/06:00pm 29.2 31.3 20.9 61 5.6 NW 11 15 6 8 1007.8 1004.8 0.0
29/05:30pm 30.3 32.2 20.5 55 6.6 N 11 17 6 9 1007.2 - 0.0
29/05:00pm 30.7 31.2 20.9 56 6.7 NW 19 30 10 16 1006.9 - 0.0
29/04:30pm 31.2 31.5 20.8 54 7.1 NW 20 28 11 15 1006.5 - 0.0
29/04:00pm 32.4 33.8 21.9 54 7.2 NW 17 26 9 14 1006.2 - 0.0
29/03:30pm 32.4 33.3 21.9 54 7.2 WNW 20 26 11 14 1006.1 - 0.0
29/03:00pm 32.3 33.5 22.1 55 7.1 WNW 19 30 10 16 1006.2 1003.2 0.0
29/02:30pm 32.2 32.1 21.4 53 7.4 NW 24 35 13 19 1006.6 - 0.0
29/02:00pm 31.9 32.4 20.8 51 7.5 WNW 19 33 10 18 1006.7 - 0.0
29/01:30pm 31.4 32.1 21.6 56 6.7 NW 20 33 11 18 1007.0 - 0.0
29/01:00pm 31.1 31.1 21.0 55 6.9 WNW 22 30 12 16 1007.3 - 0.0
29/12:30pm 31.2 31.4 20.5 53 7.2 WNW 20 28 11 15 1007.7 - 0.0
29/12:00pm 31.1 30.7 21.0 55 6.9 W 24 30 13 16 1008.2 1005.2 0.0
29/11:30am 30.9 31.7 21.7 58 6.3 NW 20 30 11 16 1008.5 - 0.0
29/11:00am 30.2 31.0 21.8 60 5.8 WNW 20 30 11 16 1009.0 - 0.0
29/10:30am 30.1 31.4 22.3 63 5.4 WNW 19 28 10 15 1009.5 - 0.0
29/10:00am 29.4 29.9 21.1 61 5.6 WNW 20 33 11 18 1009.6 - 0.0
29/09:30am 28.9 29.0 21.1 62 5.3 WNW 22 32 12 17 1009.6 - 0.0
29/09:00am 28.1 29.2 21.9 69 4.2 WNW 19 24 10 13 1009.4 1006.4 0.0
29/08:30am 27.6 28.6 22.1 72 3.8 W 20 28 11 15 1009.2 - 0.0
29/08:00am 26.6 27.8 22.2 77 3.0 W 19 24 10 13 1009.1 - 0.0
29/07:30am 25.9 27.0 22.4 81 2.4 W 20 28 11 15 1008.5 - 0.0
29/07:00am 25.2 26.9 22.3 84 2.0 W 17 28 9 15 1008.0 - 0.0
29/06:30am 25.0 26.1 22.3 85 1.8 W 20 26 11 14 1007.5 - 0.0
29/06:00am 24.8 27.5 22.1 85 1.8 N 11 20 6 11 1007.2 1004.2 0.0
29/05:30am 24.4 27.3 21.7 85 1.8 NNW 9 11 5 6 1006.7 - 0.0
29/05:00am 24.5 27.7 21.6 84 2.0 N 7 9 4 5 1006.6 - 0.0
29/04:30am 24.3 27.5 21.2 83 2.1 N 6 9 3 5 1006.4 - 0.0
29/04:00am 25.3 27.4 21.0 77 2.9 NNW 11 22 6 12 1006.1 - 0.0
29/03:30am 25.7 26.9 21.4 77 2.9 W 17 22 9 12 1006.1 - 0.0
29/03:00am 24.4 27.9 21.1 82 2.2 SSW 4 9 2 5 1006.1 1003.1 0.0
29/02:30am 24.4 28.5 20.7 80 2.5 CALM 0 0 0 0 1006.5 - 0.0
29/02:00am 25.5 28.1 20.5 74 3.3 NE 7 9 4 5 1006.8 - 0.0
29/01:30am 25.9 30.0 20.7 73 3.5 CALM 0 0 0 0 1007.0 - 0.0
29/01:00am 26.3 28.6 20.6 71 3.8 WNW 9 13 5 7 1007.1 - 0.0
29/12:30am 26.4 27.6 20.7 71 3.8 WNW 15 19 8 10 1007.0 - 0.0
29/12:00am 25.4 28.2 20.9 76 3.0 W 7 11 4 6 1007.2 1004.2 0.0
 
Date/Time
EST
Temp
°C
App
Temp
°C
Dew
Point
°C
Rel
Hum
%
Delta-T
°C
Wind Press
QNH
hPa
Press
MSL
hPa
Rain since
9am
mm
Dir  Spd
km/h
Gust
km/h
Spd
kts
Gust
kts
28/11:30pm 25.5 29.6 20.7 75 3.2 CALM 0 0 0 0 1007.4 - 0.0
28/11:00pm 24.9 29.0 20.8 78 2.7 CALM 0 0 0 0 1007.5 - 0.0
28/10:30pm 25.3 29.2 20.3 74 3.3 CALM 0 0 0 0 1007.8 - 0.0
28/10:00pm 26.2 30.1 20.3 70 3.9 CALM 0 0 0 0 1007.8 - 0.0
28/09:30pm 26.4 30.3 20.3 69 4.1 CALM 0 0 0 0 1007.6 - 0.0
28/09:00pm 26.3 30.2 20.4 70 3.9 CALM 0 0 0 0 1007.3 1004.3 0.0
28/08:30pm 27.0 30.0 20.1 66 4.6 NNW 4 9 2 5 1006.9 - 0.0
28/08:00pm 27.2 29.0 20.3 66 4.6 W 11 13 6 7 1006.6 - 0.0
28/07:30pm 27.8 28.7 20.1 63 5.1 W 15 20 8 11 1006.4 - 0.0
28/07:00pm 28.3 29.3 20.3 62 5.4 W 15 20 8 11 1005.8 - 0.0
28/06:30pm 28.8 30.2 20.3 60 5.7 W 13 17 7 9 1005.6 - 0.0
28/06:00pm 29.8 30.3 20.1 56 6.5 W 17 24 9 13 1005.3 1002.3 0.0
28/05:30pm 30.4 30.5 20.0 53 7.0 W 19 26 10 14 1005.0 - 0.0
28/05:00pm 30.8 30.6 19.8 52 7.4 W 20 28 11 15 1004.6 - 0.0
28/04:30pm 31.2 30.5 19.5 49 7.8 W 22 30 12 16 1004.5 - 0.0
28/04:00pm 32.2 32.2 20.1 48 8.2 WNW 20 30 11 16 1004.4 - 0.0
28/03:30pm 32.6 32.8 20.5 49 8.2 W 20 28 11 15 1004.5 - 0.0
28/03:00pm 32.5 32.2 20.4 49 8.2 W 22 30 12 16 1004.6 1001.5 0.0
28/02:30pm 32.2 31.4 20.1 48 8.2 W 24 35 13 19 1004.8 - 0.0
28/02:00pm 32.0 30.8 19.3 47 8.5 W 24 37 13 20 1005.0 - 0.0
28/01:30pm 31.8 31.4 20.1 50 7.9 W 22 39 12 21 1005.5 - 0.0
28/01:00pm 31.5 30.9 18.8 46 8.4 W 20 33 11 18 1005.8 - 0.0
28/12:30pm 31.4 30.3 19.4 49 8.0 W 24 32 13 17 1006.2 - 0.0
28/12:00pm 30.9 30.6 19.6 51 7.6 W 20 32 11 17 1006.8 1003.7 0.0
28/11:30am 30.2 29.9 20.4 55 6.6 WNW 22 32 12 17 1007.5 - 0.0
28/11:00am 29.4 29.9 21.9 64 5.1 W 22 32 12 17 1007.9 - 0.0
28/10:30am 29.3 29.4 21.8 64 5.1 W 24 33 13 18 1008.5 - 0.0
28/10:00am 28.5 28.4 20.8 63 5.2 W 22 32 12 17 1008.7 - 0.0
28/09:30am 28.0 27.4 20.6 64 5.0 WNW 24 33 13 18 1009.0 - 0.0
28/09:00am 27.5 28.4 21.5 70 4.1 W 19 26 10 14 1009.2 1006.2 0.0
28/08:30am 25.7 27.3 20.7 74 3.3 W 13 20 7 11 1009.1 - 0.0
28/08:00am 25.0 26.4 20.3 75 3.1 W 13 19 7 10 1008.9 - 0.0
28/07:30am 24.2 25.9 19.3 74 3.2 WNW 9 15 5 8 1008.5 - 0.0
28/07:00am 22.5 24.7 19.1 81 2.2 WSW 6 9 3 5 1008.2 - 0.0
28/06:30am 21.6 24.6 18.4 82 2.0 CALM 0 7 0 4 1007.9 - 0.0
28/06:00am 23.0 24.6 18.3 75 3.0 NW 7 9 4 5 1007.7 1004.7 0.0
28/05:30am 22.0 25.2 18.8 82 2.1 CALM 0 7 0 4 1007.7 - 0.0
28/05:00am 22.5 24.4 18.5 78 2.6 W 6 7 3 4 1007.4 - 0.0
28/04:30am 22.5 24.9 18.7 79 2.4 SSW 4 7 2 4 1007.3 - 0.0
28/04:00am 22.0 25.2 18.8 82 2.1 CALM 0 0 0 0 1007.1 - 0.0
28/03:30am 22.3 24.5 19.1 82 2.1 WSW 6 7 3 4 1007.3 - 0.0
28/03:00am 22.1 23.5 18.7 81 2.2 WSW 9 9 5 5 1007.6 1004.6 0.0
28/02:30am 22.9 24.2 18.4 76 2.9 WNW 9 11 5 6 1007.7 - 0.0
28/02:00am 23.2 25.1 18.5 75 3.0 NW 6 9 3 5 1007.8 - 0.0
28/01:30am 22.4 24.4 18.8 80 2.3 NNW 6 7 3 4 1008.1 - 0.0
28/01:00am 23.2 26.3 18.7 76 2.9 CALM 0 0 0 0 1008.3 - 0.0
28/12:30am 24.0 26.6 18.4 71 3.6 SW 2 6 1 3 1008.7 - 0.0
28/12:00am 25.1 26.3 18.3 66 4.4 SW 9 13 5 7 1008.9 1005.8 0.0
 
Date/Time
EST
Temp
°C
App
Temp
°C
Dew
Point
°C
Rel
Hum
%
Delta-T
°C
Wind Press
QNH
hPa
Press
MSL
hPa
Rain since
9am
mm
Dir  Spd
km/h
Gust
km/h
Spd
kts
Gust
kts
27/11:30pm 23.9 27.0 19.4 76 2.9 SSE 2 7 1 4 1009.1 - 0.0
27/11:00pm 24.6 27.5 19.0 71 3.6 ESE 2 6 1 3 1009.2 - 0.0
27/10:30pm 24.9 26.6 18.6 68 4.1 S 7 9 4 5 1009.2 - 0.0
27/10:00pm 25.4 26.3 18.3 65 4.6 WSW 11 13 6 7 1009.4 - 0.0
27/09:30pm 25.7 26.8 18.9 66 4.4 W 11 13 6 7 1009.0 - 0.0
27/09:00pm 25.8 27.3 19.0 66 4.4 WSW 9 13 5 7 1008.9 1005.8 0.0
27/08:30pm 26.5 29.3 18.9 63 5.0 E 2 7 1 4 1008.7 - 0.0
27/08:00pm 27.5 28.7 18.2 57 6.0 SW 9 11 5 6 1008.1 - 0.0
27/07:30pm 27.7 29.0 18.4 57 6.0 WSW 9 11 5 6 1007.9 - 0.0
27/07:00pm 28.8 30.0 18.3 53 6.8 WSW 9 15 5 8 1007.7 - 0.0
27/06:30pm 29.8 31.6 18.3 50 7.5 WSW 6 11 3 6 1007.5 - 0.0
27/06:00pm 31.1 32.3 19.1 48 8.0 W 11 15 6 8 1007.2 1004.2 0.0
27/05:30pm 31.6 32.1 19.2 47 8.2 W 15 20 8 11 1006.7 - 0.0
27/05:00pm 32.4 32.0 19.3 46 8.7 W 20 26 11 14 1006.5 - 0.0
27/04:30pm 32.3 32.2 19.5 46 8.6 W 19 28 10 15 1006.0 - 0.0
27/04:00pm 32.6 31.9 20.2 48 8.4 W 24 30 13 16 1005.9 - 0.0
27/03:30pm 32.9 32.5 20.1 47 8.6 W 22 30 12 16 1005.9 - 0.0
27/03:00pm 32.9 32.6 20.4 47 8.5 W 22 32 12 17 1006.1 1003.1 0.0

Other Formats:

Comma delimited format used in spreadsheet applications
http://www.bom.gov.au/fwo/IDQ60801/IDQ60801.95286.axf

JavaScript Object Notation format (JSON) in row-major order
http://www.bom.gov.au/fwo/IDQ60801/IDQ60801.95286.json